sensor_id;sensor_type;location;lat;lon;timestamp;P1;durP1;ratioP1;P2;durP2;ratioP2
74833;SDS011;63361;52.384;20.930;2023-04-25T00:00:56;57.23;;;24.93;;
74833;SDS011;63361;52.384;20.930;2023-04-25T00:03:22;69.40;;;26.17;;
74833;SDS011;63361;52.384;20.930;2023-04-25T00:05:50;43.85;;;22.23;;
74833;SDS011;63361;52.384;20.930;2023-04-25T00:08:16;47.42;;;22.75;;
74833;SDS011;63361;52.384;20.930;2023-04-25T00:10:42;39.77;;;20.37;;
74833;SDS011;63361;52.384;20.930;2023-04-25T00:13:07;37.58;;;20.27;;
74833;SDS011;63361;52.384;20.930;2023-04-25T00:15:33;37.23;;;19.53;;
74833;SDS011;63361;52.384;20.930;2023-04-25T00:17:58;40.27;;;21.77;;
74833;SDS011;63361;52.384;20.930;2023-04-25T00:20:23;52.07;;;24.87;;
74833;SDS011;63361;52.384;20.930;2023-04-25T00:22:49;31.80;;;18.92;;
74833;SDS011;63361;52.384;20.930;2023-04-25T00:25:15;28.45;;;17.17;;
74833;SDS011;63361;52.384;20.930;2023-04-25T00:27:41;34.57;;;19.87;;
74833;SDS011;63361;52.384;20.930;2023-04-25T00:30:07;36.70;;;19.65;;
74833;SDS011;63361;52.384;20.930;2023-04-25T00:32:33;26.93;;;17.90;;
74833;SDS011;63361;52.384;20.930;2023-04-25T00:34:58;30.02;;;17.98;;
74833;SDS011;63361;52.384;20.930;2023-04-25T00:37:23;28.93;;;17.53;;
74833;SDS011;63361;52.384;20.930;2023-04-25T00:39:49;47.17;;;21.97;;
74833;SDS011;63361;52.384;20.930;2023-04-25T00:42:15;53.83;;;25.25;;
74833;SDS011;63361;52.384;20.930;2023-04-25T00:44:41;33.40;;;19.83;;
74833;SDS011;63361;52.384;20.930;2023-04-25T00:47:08;34.85;;;20.63;;
74833;SDS011;63361;52.384;20.930;2023-04-25T00:49:33;45.13;;;23.37;;
74833;SDS011;63361;52.384;20.930;2023-04-25T00:51:58;38.97;;;20.77;;
74833;SDS011;63361;52.384;20.930;2023-04-25T00:54:24;36.33;;;20.35;;
74833;SDS011;63361;52.384;20.930;2023-04-25T00:56:50;40.37;;;22.93;;
74833;SDS011;63361;52.384;20.930;2023-04-25T00:59:15;50.53;;;27.58;;
74833;SDS011;63361;52.384;20.930;2023-04-25T01:01:43;36.03;;;21.35;;
74833;SDS011;63361;52.384;20.930;2023-04-25T01:04:09;37.47;;;21.80;;
74833;SDS011;63361;52.384;20.930;2023-04-25T01:06:34;40.17;;;22.38;;
74833;SDS011;63361;52.384;20.930;2023-04-25T01:09:00;39.40;;;23.63;;
74833;SDS011;63361;52.384;20.930;2023-04-25T01:11:27;37.22;;;22.60;;
74833;SDS011;63361;52.384;20.930;2023-04-25T01:13:52;31.63;;;20.53;;
74833;SDS011;63361;52.384;20.930;2023-04-25T01:16:17;35.53;;;20.67;;
74833;SDS011;63361;52.384;20.930;2023-04-25T01:18:43;37.40;;;20.93;;
74833;SDS011;63361;52.384;20.930;2023-04-25T01:21:09;34.00;;;21.52;;
74833;SDS011;63361;52.384;20.930;2023-04-25T01:23:36;31.20;;;19.45;;
74833;SDS011;63361;52.384;20.930;2023-04-25T01:26:03;31.45;;;18.67;;
74833;SDS011;63361;52.384;20.930;2023-04-25T01:28:29;30.87;;;20.00;;
74833;SDS011;63361;52.384;20.930;2023-04-25T01:30:55;29.88;;;20.25;;
74833;SDS011;63361;52.384;20.930;2023-04-25T01:33:21;32.20;;;19.77;;
74833;SDS011;63361;52.384;20.930;2023-04-25T01:35:47;29.80;;;19.80;;
74833;SDS011;63361;52.384;20.930;2023-04-25T01:38:13;27.83;;;19.17;;
74833;SDS011;63361;52.384;20.930;2023-04-25T01:40:39;32.53;;;19.33;;
74833;SDS011;63361;52.384;20.930;2023-04-25T01:43:05;29.02;;;20.10;;
74833;SDS011;63361;52.384;20.930;2023-04-25T01:45:33;36.60;;;19.85;;
74833;SDS011;63361;52.384;20.930;2023-04-25T01:48:01;31.65;;;20.75;;
74833;SDS011;63361;52.384;20.930;2023-04-25T01:50:26;36.87;;;21.40;;
74833;SDS011;63361;52.384;20.930;2023-04-25T01:52:52;35.83;;;23.10;;
74833;SDS011;63361;52.384;20.930;2023-04-25T01:55:18;36.65;;;22.08;;
74833;SDS011;63361;52.384;20.930;2023-04-25T01:57:43;33.87;;;21.90;;
74833;SDS011;63361;52.384;20.930;2023-04-25T02:00:09;34.17;;;20.80;;
74833;SDS011;63361;52.384;20.930;2023-04-25T02:02:35;32.72;;;20.75;;
74833;SDS011;63361;52.384;20.930;2023-04-25T02:05:00;31.13;;;20.40;;
74833;SDS011;63361;52.384;20.930;2023-04-25T02:07:26;30.07;;;19.40;;
74833;SDS011;63361;52.384;20.930;2023-04-25T02:09:51;34.30;;;20.07;;
74833;SDS011;63361;52.384;20.930;2023-04-25T02:12:17;33.30;;;20.70;;
74833;SDS011;63361;52.384;20.930;2023-04-25T02:14:42;32.03;;;21.07;;
74833;SDS011;63361;52.384;20.930;2023-04-25T02:17:07;33.47;;;20.30;;
74833;SDS011;63361;52.384;20.930;2023-04-25T02:19:33;30.98;;;19.33;;
74833;SDS011;63361;52.384;20.930;2023-04-25T02:21:58;29.83;;;20.47;;
74833;SDS011;63361;52.384;20.930;2023-04-25T02:24:23;31.27;;;19.17;;
74833;SDS011;63361;52.384;20.930;2023-04-25T02:26:49;30.80;;;20.00;;
74833;SDS011;63361;52.384;20.930;2023-04-25T02:29:14;32.97;;;19.50;;
74833;SDS011;63361;52.384;20.930;2023-04-25T02:31:40;32.87;;;19.77;;
74833;SDS011;63361;52.384;20.930;2023-04-25T02:34:05;32.93;;;20.27;;
74833;SDS011;63361;52.384;20.930;2023-04-25T02:36:31;31.80;;;21.90;;
74833;SDS011;63361;52.384;20.930;2023-04-25T02:38:59;35.87;;;24.00;;
74833;SDS011;63361;52.384;20.930;2023-04-25T02:41:25;31.65;;;20.35;;
74833;SDS011;63361;52.384;20.930;2023-04-25T02:43:51;33.07;;;20.00;;
74833;SDS011;63361;52.384;20.930;2023-04-25T02:46:16;31.87;;;20.17;;
74833;SDS011;63361;52.384;20.930;2023-04-25T02:48:41;29.70;;;18.80;;
74833;SDS011;63361;52.384;20.930;2023-04-25T02:51:06;34.10;;;19.77;;
74833;SDS011;63361;52.384;20.930;2023-04-25T02:53:32;30.93;;;18.93;;
74833;SDS011;63361;52.384;20.930;2023-04-25T02:55:57;30.30;;;17.73;;
74833;SDS011;63361;52.384;20.930;2023-04-25T02:58:24;31.40;;;19.20;;
74833;SDS011;63361;52.384;20.930;2023-04-25T03:00:49;29.08;;;17.48;;
74833;SDS011;63361;52.384;20.930;2023-04-25T03:03:15;30.00;;;18.13;;
74833;SDS011;63361;52.384;20.930;2023-04-25T03:05:42;28.08;;;18.67;;
74833;SDS011;63361;52.384;20.930;2023-04-25T03:08:08;30.30;;;17.50;;
74833;SDS011;63361;52.384;20.930;2023-04-25T03:10:34;26.33;;;17.20;;
74833;SDS011;63361;52.384;20.930;2023-04-25T03:12:59;25.97;;;15.83;;
74833;SDS011;63361;52.384;20.930;2023-04-25T03:15:24;28.87;;;17.20;;
74833;SDS011;63361;52.384;20.930;2023-04-25T03:17:50;27.63;;;16.73;;
74833;SDS011;63361;52.384;20.930;2023-04-25T03:20:15;27.10;;;17.10;;
74833;SDS011;63361;52.384;20.930;2023-04-25T03:22:41;28.10;;;16.67;;
74833;SDS011;63361;52.384;20.930;2023-04-25T03:25:06;34.97;;;20.10;;
74833;SDS011;63361;52.384;20.930;2023-04-25T03:27:32;29.20;;;18.98;;
74833;SDS011;63361;52.384;20.930;2023-04-25T03:29:58;29.90;;;16.87;;
74833;SDS011;63361;52.384;20.930;2023-04-25T03:32:23;27.70;;;16.63;;
74833;SDS011;63361;52.384;20.930;2023-04-25T03:34:49;25.85;;;15.18;;
74833;SDS011;63361;52.384;20.930;2023-04-25T03:37:15;27.77;;;16.70;;
74833;SDS011;63361;52.384;20.930;2023-04-25T03:39:40;26.67;;;15.53;;
74833;SDS011;63361;52.384;20.930;2023-04-25T03:42:05;26.92;;;14.82;;
74833;SDS011;63361;52.384;20.930;2023-04-25T03:44:31;26.53;;;14.90;;
74833;SDS011;63361;52.384;20.930;2023-04-25T03:46:56;27.27;;;15.03;;
74833;SDS011;63361;52.384;20.930;2023-04-25T03:49:21;24.73;;;13.97;;
74833;SDS011;63361;52.384;20.930;2023-04-25T03:51:47;23.77;;;14.27;;
74833;SDS011;63361;52.384;20.930;2023-04-25T03:54:12;21.80;;;13.27;;
74833;SDS011;63361;52.384;20.930;2023-04-25T03:56:37;23.83;;;13.27;;
74833;SDS011;63361;52.384;20.930;2023-04-25T03:59:03;20.80;;;12.63;;
74833;SDS011;63361;52.384;20.930;2023-04-25T04:01:28;17.70;;;11.27;;
74833;SDS011;63361;52.384;20.930;2023-04-25T04:03:54;18.80;;;10.67;;
74833;SDS011;63361;52.384;20.930;2023-04-25T04:06:19;16.23;;;10.07;;
74833;SDS011;63361;52.384;20.930;2023-04-25T04:08:45;17.10;;;10.82;;
74833;SDS011;63361;52.384;20.930;2023-04-25T04:11:11;18.45;;;10.70;;
74833;SDS011;63361;52.384;20.930;2023-04-25T04:13:36;15.50;;;10.43;;
74833;SDS011;63361;52.384;20.930;2023-04-25T04:16:02;17.27;;;10.40;;
74833;SDS011;63361;52.384;20.930;2023-04-25T04:18:29;18.75;;;10.52;;
74833;SDS011;63361;52.384;20.930;2023-04-25T04:20:54;16.77;;;10.90;;
74833;SDS011;63361;52.384;20.930;2023-04-25T04:23:20;14.40;;;9.20;;
74833;SDS011;63361;52.384;20.930;2023-04-25T04:25:45;17.15;;;9.98;;
74833;SDS011;63361;52.384;20.930;2023-04-25T04:28:11;16.52;;;9.57;;
74833;SDS011;63361;52.384;20.930;2023-04-25T04:30:38;16.57;;;9.13;;
74833;SDS011;63361;52.384;20.930;2023-04-25T04:33:04;13.30;;;8.32;;
74833;SDS011;63361;52.384;20.930;2023-04-25T04:35:29;15.20;;;8.60;;
74833;SDS011;63361;52.384;20.930;2023-04-25T04:37:55;15.25;;;9.30;;
74833;SDS011;63361;52.384;20.930;2023-04-25T04:40:21;16.30;;;9.00;;
74833;SDS011;63361;52.384;20.930;2023-04-25T04:42:46;13.43;;;8.87;;
74833;SDS011;63361;52.384;20.930;2023-04-25T04:45:13;16.70;;;9.38;;
74833;SDS011;63361;52.384;20.930;2023-04-25T04:47:39;13.60;;;9.45;;
74833;SDS011;63361;52.384;20.930;2023-04-25T04:50:07;13.93;;;9.53;;
74833;SDS011;63361;52.384;20.930;2023-04-25T04:52:36;15.10;;;9.25;;
74833;SDS011;63361;52.384;20.930;2023-04-25T04:55:02;16.47;;;9.40;;
74833;SDS011;63361;52.384;20.930;2023-04-25T04:57:29;16.58;;;10.60;;
74833;SDS011;63361;52.384;20.930;2023-04-25T04:59:54;20.25;;;10.15;;
74833;SDS011;63361;52.384;20.930;2023-04-25T05:02:20;17.47;;;11.07;;
74833;SDS011;63361;52.384;20.930;2023-04-25T05:04:47;18.10;;;10.93;;
74833;SDS011;63361;52.384;20.930;2023-04-25T05:07:12;16.17;;;10.87;;
74833;SDS011;63361;52.384;20.930;2023-04-25T05:09:38;17.05;;;11.27;;
74833;SDS011;63361;52.384;20.930;2023-04-25T05:12:03;16.40;;;11.53;;
74833;SDS011;63361;52.384;20.930;2023-04-25T05:14:29;15.43;;;10.50;;
74833;SDS011;63361;52.384;20.930;2023-04-25T05:16:54;13.70;;;10.30;;
74833;SDS011;63361;52.384;20.930;2023-04-25T05:19:19;16.73;;;10.93;;
74833;SDS011;63361;52.384;20.930;2023-04-25T05:21:45;16.03;;;10.63;;
74833;SDS011;63361;52.384;20.930;2023-04-25T05:24:10;16.70;;;11.13;;
74833;SDS011;63361;52.384;20.930;2023-04-25T05:26:35;18.10;;;11.03;;
74833;SDS011;63361;52.384;20.930;2023-04-25T05:29:01;16.77;;;11.50;;
74833;SDS011;63361;52.384;20.930;2023-04-25T05:31:26;18.07;;;11.53;;
74833;SDS011;63361;52.384;20.930;2023-04-25T05:33:51;16.87;;;10.87;;
74833;SDS011;63361;52.384;20.930;2023-04-25T05:36:18;16.52;;;11.88;;
74833;SDS011;63361;52.384;20.930;2023-04-25T05:38:44;17.92;;;11.80;;
74833;SDS011;63361;52.384;20.930;2023-04-25T05:41:09;17.70;;;11.93;;
74833;SDS011;63361;52.384;20.930;2023-04-25T05:43:34;18.87;;;11.63;;
74833;SDS011;63361;52.384;20.930;2023-04-25T05:46:00;20.63;;;13.13;;
74833;SDS011;63361;52.384;20.930;2023-04-25T05:48:25;15.87;;;11.57;;
74833;SDS011;63361;52.384;20.930;2023-04-25T05:50:50;16.20;;;11.63;;
74833;SDS011;63361;52.384;20.930;2023-04-25T05:53:16;15.83;;;11.50;;
74833;SDS011;63361;52.384;20.930;2023-04-25T05:55:42;17.23;;;12.23;;
74833;SDS011;63361;52.384;20.930;2023-04-25T05:58:07;16.83;;;12.53;;
74833;SDS011;63361;52.384;20.930;2023-04-25T06:00:33;18.33;;;12.33;;
74833;SDS011;63361;52.384;20.930;2023-04-25T06:02:58;16.40;;;11.88;;
74833;SDS011;63361;52.384;20.930;2023-04-25T06:05:24;16.57;;;11.83;;
74833;SDS011;63361;52.384;20.930;2023-04-25T06:07:50;16.97;;;12.17;;
74833;SDS011;63361;52.384;20.930;2023-04-25T06:10:15;16.43;;;12.50;;
74833;SDS011;63361;52.384;20.930;2023-04-25T06:12:40;19.00;;;13.20;;
74833;SDS011;63361;52.384;20.930;2023-04-25T06:15:06;19.27;;;13.00;;
74833;SDS011;63361;52.384;20.930;2023-04-25T06:17:32;17.55;;;12.02;;
74833;SDS011;63361;52.384;20.930;2023-04-25T06:19:57;17.37;;;12.80;;
74833;SDS011;63361;52.384;20.930;2023-04-25T06:22:23;20.67;;;12.93;;
74833;SDS011;63361;52.384;20.930;2023-04-25T06:24:48;17.87;;;12.67;;
74833;SDS011;63361;52.384;20.930;2023-04-25T06:27:13;17.40;;;12.20;;
74833;SDS011;63361;52.384;20.930;2023-04-25T06:29:39;18.63;;;13.17;;
74833;SDS011;63361;52.384;20.930;2023-04-25T06:32:04;17.80;;;12.43;;
74833;SDS011;63361;52.384;20.930;2023-04-25T06:34:30;16.52;;;12.00;;
74833;SDS011;63361;52.384;20.930;2023-04-25T06:36:55;18.50;;;11.93;;
74833;SDS011;63361;52.384;20.930;2023-04-25T06:39:20;16.10;;;11.73;;
74833;SDS011;63361;52.384;20.930;2023-04-25T06:41:48;18.70;;;12.25;;
74833;SDS011;63361;52.384;20.930;2023-04-25T06:44:13;20.27;;;13.27;;
74833;SDS011;63361;52.384;20.930;2023-04-25T06:46:39;17.57;;;12.23;;
74833;SDS011;63361;52.384;20.930;2023-04-25T06:49:04;16.77;;;12.63;;
74833;SDS011;63361;52.384;20.930;2023-04-25T06:51:30;20.10;;;12.50;;
74833;SDS011;63361;52.384;20.930;2023-04-25T06:53:55;19.27;;;13.00;;
74833;SDS011;63361;52.384;20.930;2023-04-25T06:56:21;19.50;;;13.43;;
74833;SDS011;63361;52.384;20.930;2023-04-25T06:58:46;20.03;;;13.50;;
74833;SDS011;63361;52.384;20.930;2023-04-25T07:01:12;20.03;;;13.93;;
74833;SDS011;63361;52.384;20.930;2023-04-25T07:03:37;22.70;;;14.40;;
74833;SDS011;63361;52.384;20.930;2023-04-25T07:06:03;22.67;;;14.00;;
74833;SDS011;63361;52.384;20.930;2023-04-25T07:08:28;20.70;;;13.80;;
74833;SDS011;63361;52.384;20.930;2023-04-25T07:10:54;17.80;;;11.85;;
74833;SDS011;63361;52.384;20.930;2023-04-25T07:13:20;19.27;;;12.53;;
74833;SDS011;63361;52.384;20.930;2023-04-25T07:15:45;21.90;;;13.97;;
74833;SDS011;63361;52.384;20.930;2023-04-25T07:18:12;22.23;;;13.13;;
74833;SDS011;63361;52.384;20.930;2023-04-25T07:20:37;22.27;;;12.43;;
74833;SDS011;63361;52.384;20.930;2023-04-25T07:23:03;17.50;;;11.97;;
74833;SDS011;63361;52.384;20.930;2023-04-25T07:25:28;16.83;;;12.05;;
74833;SDS011;63361;52.384;20.930;2023-04-25T07:27:53;17.17;;;11.07;;
74833;SDS011;63361;52.384;20.930;2023-04-25T07:30:19;15.00;;;11.03;;
74833;SDS011;63361;52.384;20.930;2023-04-25T07:32:44;15.33;;;10.13;;
74833;SDS011;63361;52.384;20.930;2023-04-25T07:35:10;14.55;;;9.27;;
74833;SDS011;63361;52.384;20.930;2023-04-25T07:37:35;12.47;;;9.17;;
74833;SDS011;63361;52.384;20.930;2023-04-25T07:40:02;14.90;;;9.37;;
74833;SDS011;63361;52.384;20.930;2023-04-25T07:42:28;10.38;;;7.93;;
74833;SDS011;63361;52.384;20.930;2023-04-25T07:44:54;10.07;;;7.50;;
74833;SDS011;63361;52.384;20.930;2023-04-25T07:47:19;11.10;;;7.67;;
74833;SDS011;63361;52.384;20.930;2023-04-25T07:49:45;10.85;;;6.90;;
74833;SDS011;63361;52.384;20.930;2023-04-25T07:52:10;9.27;;;6.03;;
74833;SDS011;63361;52.384;20.930;2023-04-25T07:54:36;9.57;;;6.40;;
74833;SDS011;63361;52.384;20.930;2023-04-25T07:57:01;9.90;;;6.43;;
74833;SDS011;63361;52.384;20.930;2023-04-25T07:59:27;7.83;;;5.67;;
74833;SDS011;63361;52.384;20.930;2023-04-25T08:01:52;7.77;;;5.73;;
74833;SDS011;63361;52.384;20.930;2023-04-25T08:04:18;7.53;;;5.57;;
74833;SDS011;63361;52.384;20.930;2023-04-25T08:06:43;9.73;;;5.50;;
74833;SDS011;63361;52.384;20.930;2023-04-25T08:09:09;9.67;;;5.90;;
74833;SDS011;63361;52.384;20.930;2023-04-25T08:11:34;8.73;;;6.20;;
74833;SDS011;63361;52.384;20.930;2023-04-25T08:14:00;9.93;;;6.95;;
74833;SDS011;63361;52.384;20.930;2023-04-25T08:16:26;10.10;;;7.15;;
74833;SDS011;63361;52.384;20.930;2023-04-25T08:18:52;8.20;;;6.30;;
74833;SDS011;63361;52.384;20.930;2023-04-25T08:21:17;7.97;;;6.50;;
74833;SDS011;63361;52.384;20.930;2023-04-25T08:23:42;8.17;;;6.00;;
74833;SDS011;63361;52.384;20.930;2023-04-25T08:26:08;8.77;;;6.83;;
74833;SDS011;63361;52.384;20.930;2023-04-25T08:28:33;9.20;;;7.07;;
74833;SDS011;63361;52.384;20.930;2023-04-25T08:30:59;13.63;;;7.17;;
74833;SDS011;63361;52.384;20.930;2023-04-25T08:33:24;9.48;;;7.00;;
74833;SDS011;63361;52.384;20.930;2023-04-25T08:35:50;9.07;;;6.73;;
74833;SDS011;63361;52.384;20.930;2023-04-25T08:38:15;10.93;;;7.57;;
74833;SDS011;63361;52.384;20.930;2023-04-25T08:40:41;10.90;;;6.67;;
74833;SDS011;63361;52.384;20.930;2023-04-25T08:43:08;8.95;;;7.22;;
74833;SDS011;63361;52.384;20.930;2023-04-25T08:45:40;8.15;;;6.60;;
74833;SDS011;63361;52.384;20.930;2023-04-25T08:48:13;8.18;;;6.70;;
74833;SDS011;63361;52.384;20.930;2023-04-25T08:50:53;10.05;;;8.18;;
74833;SDS011;63361;52.384;20.930;2023-04-25T08:53:26;10.83;;;6.77;;
74833;SDS011;63361;52.384;20.930;2023-04-25T08:55:54;9.32;;;6.78;;
74833;SDS011;63361;52.384;20.930;2023-04-25T08:58:21;8.27;;;6.10;;
74833;SDS011;63361;52.384;20.930;2023-04-25T09:00:47;8.68;;;6.05;;
74833;SDS011;63361;52.384;20.930;2023-04-25T09:03:14;9.73;;;6.40;;
74833;SDS011;63361;52.384;20.930;2023-04-25T09:05:40;8.10;;;5.75;;
74833;SDS011;63361;52.384;20.930;2023-04-25T09:08:06;8.68;;;6.45;;
74833;SDS011;63361;52.384;20.930;2023-04-25T09:10:32;12.18;;;6.28;;
74833;SDS011;63361;52.384;20.930;2023-04-25T09:13:07;9.23;;;6.93;;
74833;SDS011;63361;52.384;20.930;2023-04-25T09:15:46;9.77;;;7.55;;
74833;SDS011;63361;52.384;20.930;2023-04-25T09:18:12;9.20;;;7.28;;
74833;SDS011;63361;52.384;20.930;2023-04-25T09:20:43;10.03;;;7.30;;
74833;SDS011;63361;52.384;20.930;2023-04-25T09:23:08;9.63;;;6.63;;
74833;SDS011;63361;52.384;20.930;2023-04-25T09:25:34;9.33;;;7.20;;
74833;SDS011;63361;52.384;20.930;2023-04-25T09:28:04;9.57;;;6.47;;
74833;SDS011;63361;52.384;20.930;2023-04-25T09:30:31;8.63;;;6.88;;
74833;SDS011;63361;52.384;20.930;2023-04-25T09:33:04;10.75;;;6.45;;
74833;SDS011;63361;52.384;20.930;2023-04-25T09:35:36;10.03;;;6.50;;
74833;SDS011;63361;52.384;20.930;2023-04-25T09:38:10;8.70;;;6.20;;
74833;SDS011;63361;52.384;20.930;2023-04-25T09:40:41;9.32;;;6.15;;
74833;SDS011;63361;52.384;20.930;2023-04-25T09:43:18;8.23;;;5.57;;
74833;SDS011;63361;52.384;20.930;2023-04-25T09:45:43;8.27;;;5.90;;
74833;SDS011;63361;52.384;20.930;2023-04-25T09:48:10;8.97;;;5.63;;
74833;SDS011;63361;52.384;20.930;2023-04-25T09:50:36;9.38;;;6.30;;
74833;SDS011;63361;52.384;20.930;2023-04-25T09:53:03;9.70;;;6.50;;
74833;SDS011;63361;52.384;20.930;2023-04-25T09:55:31;8.32;;;5.95;;
74833;SDS011;63361;52.384;20.930;2023-04-25T09:57:57;11.70;;;6.70;;
74833;SDS011;63361;52.384;20.930;2023-04-25T10:00:28;8.82;;;6.38;;
74833;SDS011;63361;52.384;20.930;2023-04-25T10:02:54;10.20;;;7.32;;
74833;SDS011;63361;52.384;20.930;2023-04-25T10:05:22;9.63;;;6.50;;
74833;SDS011;63361;52.384;20.930;2023-04-25T10:07:49;13.05;;;8.02;;
74833;SDS011;63361;52.384;20.930;2023-04-25T10:10:16;11.27;;;8.15;;
74833;SDS011;63361;52.384;20.930;2023-04-25T10:12:43;13.55;;;8.27;;
74833;SDS011;63361;52.384;20.930;2023-04-25T10:15:10;13.27;;;8.73;;
74833;SDS011;63361;52.384;20.930;2023-04-25T10:17:37;15.03;;;9.03;;
74833;SDS011;63361;52.384;20.930;2023-04-25T10:20:03;11.82;;;9.10;;
74833;SDS011;63361;52.384;20.930;2023-04-25T10:22:44;14.50;;;9.55;;
74833;SDS011;63361;52.384;20.930;2023-04-25T10:25:12;13.82;;;10.32;;
74833;SDS011;63361;52.384;20.930;2023-04-25T10:27:39;13.25;;;9.07;;
74833;SDS011;63361;52.384;20.930;2023-04-25T10:30:06;12.43;;;9.90;;
74833;SDS011;63361;52.384;20.930;2023-04-25T10:32:37;14.65;;;9.80;;
74833;SDS011;63361;52.384;20.930;2023-04-25T10:40:25;11.30;;;7.93;;
74833;SDS011;63361;52.384;20.930;2023-04-25T10:42:52;12.15;;;8.45;;
74833;SDS011;63361;52.384;20.930;2023-04-25T10:45:19;9.25;;;6.82;;
74833;SDS011;63361;52.384;20.930;2023-04-25T10:47:45;15.63;;;9.20;;
74833;SDS011;63361;52.384;20.930;2023-04-25T10:50:10;11.77;;;8.10;;
74833;SDS011;63361;52.384;20.930;2023-04-25T10:52:36;9.63;;;6.60;;
74833;SDS011;63361;52.384;20.930;2023-04-25T10:55:04;8.77;;;6.60;;
74833;SDS011;63361;52.384;20.930;2023-04-25T10:59:59;10.57;;;5.50;;
74833;SDS011;63361;52.384;20.930;2023-04-25T11:02:52;7.28;;;5.22;;
74833;SDS011;63361;52.384;20.930;2023-04-25T11:05:33;8.25;;;5.63;;
74833;SDS011;63361;52.384;20.930;2023-04-25T11:08:01;7.00;;;4.83;;
74833;SDS011;63361;52.384;20.930;2023-04-25T11:10:32;8.60;;;4.80;;
74833;SDS011;63361;52.384;20.930;2023-04-25T11:13:00;8.80;;;5.28;;
74833;SDS011;63361;52.384;20.930;2023-04-25T11:15:25;6.50;;;4.87;;
74833;SDS011;63361;52.384;20.930;2023-04-25T11:17:51;6.43;;;4.30;;
74833;SDS011;63361;52.384;20.930;2023-04-25T11:20:17;5.82;;;3.53;;
74833;SDS011;63361;52.384;20.930;2023-04-25T11:22:44;8.37;;;4.50;;
74833;SDS011;63361;52.384;20.930;2023-04-25T11:25:10;6.63;;;4.75;;
74833;SDS011;63361;52.384;20.930;2023-04-25T11:27:38;7.15;;;3.97;;
74833;SDS011;63361;52.384;20.930;2023-04-25T11:30:19;6.23;;;4.27;;
74833;SDS011;63361;52.384;20.930;2023-04-25T11:32:45;7.68;;;3.97;;
74833;SDS011;63361;52.384;20.930;2023-04-25T11:35:11;5.05;;;3.47;;
74833;SDS011;63361;52.384;20.930;2023-04-25T11:37:40;9.10;;;3.83;;
74833;SDS011;63361;52.384;20.930;2023-04-25T11:40:08;4.93;;;3.42;;
74833;SDS011;63361;52.384;20.930;2023-04-25T11:42:37;5.32;;;3.42;;
74833;SDS011;63361;52.384;20.930;2023-04-25T11:45:10;6.65;;;3.20;;
74833;SDS011;63361;52.384;20.930;2023-04-25T11:47:37;5.00;;;3.08;;
74833;SDS011;63361;52.384;20.930;2023-04-25T11:50:03;5.47;;;3.50;;
74833;SDS011;63361;52.384;20.930;2023-04-25T11:55:15;5.43;;;3.55;;
74833;SDS011;63361;52.384;20.930;2023-04-25T11:57:42;6.20;;;3.47;;
74833;SDS011;63361;52.384;20.930;2023-04-25T12:00:19;5.05;;;3.30;;
74833;SDS011;63361;52.384;20.930;2023-04-25T12:02:47;5.90;;;3.10;;
74833;SDS011;63361;52.384;20.930;2023-04-25T12:05:14;5.47;;;3.00;;
74833;SDS011;63361;52.384;20.930;2023-04-25T12:07:41;7.30;;;3.35;;
74833;SDS011;63361;52.384;20.930;2023-04-25T12:10:08;5.88;;;4.00;;
74833;SDS011;63361;52.384;20.930;2023-04-25T12:12:35;7.97;;;3.78;;
74833;SDS011;63361;52.384;20.930;2023-04-25T12:15:08;5.67;;;3.67;;
74833;SDS011;63361;52.384;20.930;2023-04-25T12:17:46;7.70;;;3.85;;
74833;SDS011;63361;52.384;20.930;2023-04-25T12:20:14;6.60;;;3.80;;
74833;SDS011;63361;52.384;20.930;2023-04-25T12:22:50;5.57;;;3.60;;
74833;SDS011;63361;52.384;20.930;2023-04-25T12:28:11;5.28;;;2.90;;
74833;SDS011;63361;52.384;20.930;2023-04-25T12:30:54;5.93;;;3.45;;
74833;SDS011;63361;52.384;20.930;2023-04-25T12:33:28;6.13;;;2.90;;
74833;SDS011;63361;52.384;20.930;2023-04-25T12:35:54;7.32;;;3.05;;
74833;SDS011;63361;52.384;20.930;2023-04-25T12:38:24;5.23;;;3.13;;
74833;SDS011;63361;52.384;20.930;2023-04-25T12:40:55;6.38;;;2.90;;
74833;SDS011;63361;52.384;20.930;2023-04-25T12:43:21;5.43;;;3.40;;
74833;SDS011;63361;52.384;20.930;2023-04-25T12:45:48;5.68;;;3.33;;
74833;SDS011;63361;52.384;20.930;2023-04-25T12:48:15;4.90;;;2.87;;
74833;SDS011;63361;52.384;20.930;2023-04-25T12:50:40;5.97;;;2.75;;
74833;SDS011;63361;52.384;20.930;2023-04-25T12:53:06;4.73;;;2.80;;
74833;SDS011;63361;52.384;20.930;2023-04-25T12:55:31;5.60;;;2.78;;
74833;SDS011;63361;52.384;20.930;2023-04-25T12:57:57;5.07;;;2.83;;
74833;SDS011;63361;52.384;20.930;2023-04-25T13:00:22;4.63;;;2.67;;
74833;SDS011;63361;52.384;20.930;2023-04-25T13:02:47;4.67;;;2.70;;
74833;SDS011;63361;52.384;20.930;2023-04-25T13:05:13;4.77;;;2.90;;
74833;SDS011;63361;52.384;20.930;2023-04-25T13:07:38;5.20;;;2.63;;
74833;SDS011;63361;52.384;20.930;2023-04-25T13:10:04;7.93;;;3.27;;
74833;SDS011;63361;52.384;20.930;2023-04-25T13:12:30;5.70;;;3.27;;
74833;SDS011;63361;52.384;20.930;2023-04-25T13:14:56;5.78;;;3.63;;
74833;SDS011;63361;52.384;20.930;2023-04-25T13:17:21;4.70;;;2.90;;
74833;SDS011;63361;52.384;20.930;2023-04-25T13:19:47;5.00;;;3.17;;
74833;SDS011;63361;52.384;20.930;2023-04-25T13:22:12;5.53;;;3.40;;
74833;SDS011;63361;52.384;20.930;2023-04-25T13:24:40;5.17;;;3.30;;
74833;SDS011;63361;52.384;20.930;2023-04-25T13:27:05;5.90;;;3.65;;
74833;SDS011;63361;52.384;20.930;2023-04-25T13:29:31;5.23;;;3.30;;
74833;SDS011;63361;52.384;20.930;2023-04-25T13:31:56;5.83;;;3.67;;
74833;SDS011;63361;52.384;20.930;2023-04-25T13:34:21;5.30;;;3.53;;
74833;SDS011;63361;52.384;20.930;2023-04-25T13:36:47;5.83;;;3.53;;
74833;SDS011;63361;52.384;20.930;2023-04-25T13:39:12;7.10;;;3.70;;
74833;SDS011;63361;52.384;20.930;2023-04-25T13:41:38;6.93;;;3.80;;
74833;SDS011;63361;52.384;20.930;2023-04-25T13:44:03;8.43;;;4.35;;
74833;SDS011;63361;52.384;20.930;2023-04-25T13:46:29;9.63;;;4.23;;
74833;SDS011;63361;52.384;20.930;2023-04-25T13:48:54;7.40;;;3.97;;
74833;SDS011;63361;52.384;20.930;2023-04-25T13:51:19;6.17;;;3.93;;
74833;SDS011;63361;52.384;20.930;2023-04-25T13:53:45;7.68;;;3.75;;
74833;SDS011;63361;52.384;20.930;2023-04-25T13:56:11;8.43;;;3.60;;
74833;SDS011;63361;52.384;20.930;2023-04-25T13:58:36;5.40;;;3.73;;
74833;SDS011;63361;52.384;20.930;2023-04-25T14:01:02;6.53;;;4.13;;
74833;SDS011;63361;52.384;20.930;2023-04-25T14:03:28;6.95;;;4.30;;
74833;SDS011;63361;52.384;20.930;2023-04-25T14:05:54;7.63;;;4.40;;
74833;SDS011;63361;52.384;20.930;2023-04-25T14:08:20;8.82;;;4.40;;
74833;SDS011;63361;52.384;20.930;2023-04-25T14:10:45;6.80;;;4.27;;
74833;SDS011;63361;52.384;20.930;2023-04-25T14:13:10;6.23;;;4.23;;
74833;SDS011;63361;52.384;20.930;2023-04-25T14:15:36;8.60;;;4.60;;
74833;SDS011;63361;52.384;20.930;2023-04-25T14:18:01;6.78;;;4.85;;
74833;SDS011;63361;52.384;20.930;2023-04-25T14:20:27;7.37;;;4.60;;
74833;SDS011;63361;52.384;20.930;2023-04-25T14:22:53;7.72;;;4.70;;
74833;SDS011;63361;52.384;20.930;2023-04-25T14:25:20;8.95;;;4.88;;
74833;SDS011;63361;52.384;20.930;2023-04-25T14:27:46;8.27;;;5.10;;
74833;SDS011;63361;52.384;20.930;2023-04-25T14:30:14;6.93;;;4.65;;